Time;durP1;ratioP1;P1;durP2;ratioP2;P2;SDS_P1;SDS_P2;PMS_P1;PMS_P2;Temp;Humidity;BMP_temperature;BMP_pressure;BME280_temperature;BME280_humidity;BME280_pressure;Samples;Min_cycle;Max_cycle;Signal;HPM_P1;HPM_P2
2022/03/06 00:00:51;;;;;;;8.20;5.15;;;;;;;0.81;59.59;100896.78;5590009;31;34608;-61
2022/03/06 00:03:54;;;;;;;9.23;5.18;;;;;;;0.83;59.33;100896.66;5590118;31;33900;-62
2022/03/06 00:06:57;;;;;;;10.65;5.25;;;;;;;0.67;60.14;100901.16;5590058;31;35371;-62
2022/03/06 00:09:59;;;;;;;10.55;5.65;;;;;;;0.67;60.29;100898.53;5589917;31;33997;-62
2022/03/06 00:13:02;;;;;;;8.70;5.53;;;;;;;0.61;60.65;100901.50;5589187;31;33966;-62
2022/03/06 00:16:05;;;;;;;9.43;5.87;;;;;;;0.65;60.78;100903.00;5589935;31;34582;-62
2022/03/06 00:19:08;;;;;;;10.95;6.05;;;;;;;0.49;60.87;100900.44;5589927;31;35275;-62
2022/03/06 00:22:14;;;;;;;12.25;6.00;;;;;;;0.51;61.49;100900.38;5589915;31;34676;-62
2022/03/06 00:25:16;;;;;;;14.07;6.35;;;;;;;0.29;61.97;100898.19;5589922;31;34622;-62
2022/03/06 00:28:19;;;;;;;13.40;6.32;;;;;;;0.19;62.36;100902.28;5589679;31;34216;-62
2022/03/06 00:31:25;;;;;;;10.68;6.40;;;;;;;-0.03;64.42;100910.47;5588947;31;34028;-62
2022/03/06 00:34:30;;;;;;;13.62;6.15;;;;;;;-0.12;64.11;100903.19;5590181;31;33901;-62
2022/03/06 00:37:35;;;;;;;13.52;6.68;;;;;;;0.09;63.54;100899.34;5589923;31;34556;-62
2022/03/06 00:40:41;;;;;;;11.18;6.50;;;;;;;0.13;63.41;100906.06;5589669;31;33580;-63
2022/03/06 00:43:44;;;;;;;11.20;6.18;;;;;;;0.08;63.85;100904.66;5590003;31;34030;-62
2022/03/06 00:46:47;;;;;;;12.48;7.22;;;;;;;0.10;63.59;100902.81;5589663;31;33927;-62
2022/03/06 00:49:50;;;;;;;12.55;6.62;;;;;;;0.00;64.04;100900.69;5589542;31;34783;-62
2022/03/06 00:52:53;;;;;;;12.63;6.60;;;;;;;-0.14;64.25;100905.88;5589586;31;34612;-63
2022/03/06 00:55:55;;;;;;;11.93;6.53;;;;;;;-0.32;65.28;100900.84;5589588;31;34465;-63
2022/03/06 00:58:58;;;;;;;13.10;7.03;;;;;;;-0.20;65.00;100910.59;5589447;31;34888;-62
2022/03/06 01:02:03;;;;;;;12.18;6.65;;;;;;;-0.21;64.99;100903.72;5589583;31;33854;-62
2022/03/06 01:05:07;;;;;;;13.05;7.30;;;;;;;-0.22;65.19;100913.28;5589470;31;34297;-62
2022/03/06 01:08:10;;;;;;;12.43;6.97;;;;;;;-0.25;65.22;100908.25;5589358;31;34008;-62
2022/03/06 01:11:13;;;;;;;12.98;6.82;;;;;;;-0.32;65.87;100901.69;5589389;31;33978;-61
2022/03/06 01:14:16;;;;;;;11.15;6.80;;;;;;;-0.36;65.78;100900.19;5589421;31;34023;-63
2022/03/06 01:17:19;;;;;;;12.70;6.97;;;;;;;-0.23;65.25;100898.56;5589703;31;35198;-62
2022/03/06 01:20:23;;;;;;;13.15;7.00;;;;;;;-0.22;65.32;100891.59;5589633;31;34296;-62
2022/03/06 01:23:28;;;;;;;12.13;6.70;;;;;;;-0.33;66.07;100892.19;5589253;31;33991;-63
2022/03/06 01:26:31;;;;;;;10.55;6.35;;;;;;;-0.26;65.56;100887.47;5589147;31;33923;-63
2022/03/06 01:29:33;;;;;;;14.23;7.30;;;;;;;-0.28;65.86;100884.94;5589041;31;34078;-63
2022/03/06 01:32:37;;;;;;;12.10;7.30;;;;;;;-0.31;65.67;100879.06;5589045;31;34268;-63
2022/03/06 01:35:40;;;;;;;11.68;6.75;;;;;;;-0.20;65.48;100879.31;5588420;31;34034;-62
2022/03/06 01:38:42;;;;;;;12.35;6.95;;;;;;;-0.34;66.01;100872.28;5589231;31;33883;-62
2022/03/06 01:41:45;;;;;;;10.23;6.82;;;;;;;-0.35;65.96;100869.75;5588992;31;34228;-61
2022/03/06 01:44:50;;;;;;;14.23;6.85;;;;;;;-0.27;65.73;100871.00;5588963;31;33501;-62
2022/03/06 01:47:54;;;;;;;12.77;6.72;;;;;;;-0.49;66.56;100871.37;5588926;31;34632;-62
2022/03/06 01:50:57;;;;;;;14.80;7.68;;;;;;;-0.39;66.33;100863.03;5591200;31;33923;-61
2022/03/06 01:54:00;;;;;;;14.75;7.20;;;;;;;-0.53;66.90;100859.41;5595216;31;34009;-62
2022/03/06 01:57:02;;;;;;;14.25;7.20;;;;;;;-0.50;66.72;100854.06;5595635;31;34532;-62
2022/03/06 02:00:10;;;;;;;11.75;6.95;;;;;;;-0.49;67.08;100850.53;5595202;31;34111;-62
2022/03/06 02:03:14;;;;;;;13.13;6.95;;;;;;;-0.61;67.46;100843.37;5595504;31;34148;-62
2022/03/06 02:06:19;;;;;;;13.57;6.93;;;;;;;-0.52;67.18;100844.63;5595178;31;34008;-61
2022/03/06 02:09:22;;;;;;;14.18;7.25;;;;;;;-0.55;67.15;100848.25;5595300;31;34001;-62
2022/03/06 02:12:26;;;;;;;12.55;7.10;;;;;;;-0.41;66.84;100844.03;5594270;31;33986;-63
2022/03/06 02:15:28;;;;;;;14.00;7.03;;;;;;;-0.50;67.14;100838.41;5595277;31;33920;-62
2022/03/06 02:18:31;;;;;;;12.10;7.40;;;;;;;-0.58;67.06;100832.78;5594198;31;33963;-62
2022/03/06 02:21:34;;;;;;;15.68;7.37;;;;;;;-0.64;67.37;100833.16;5594868;31;34005;-62
2022/03/06 02:24:37;;;;;;;12.40;7.05;;;;;;;-0.69;67.98;100835.16;5595115;31;33994;-62
2022/03/06 02:27:39;;;;;;;12.70;7.45;;;;;;;-0.82;68.22;100835.94;5594592;31;33942;-61
2022/03/06 02:30:43;;;;;;;14.07;7.43;;;;;;;-0.90;68.11;100839.78;5589916;31;140905;-62
2022/03/06 02:33:46;;;;;;;12.15;7.10;;;;;;;-1.02;69.16;100832.66;5595068;31;34409;-61
2022/03/06 02:36:49;;;;;;;14.55;7.70;;;;;;;-1.04;69.14;100834.50;5594603;31;34026;-62
2022/03/06 02:39:51;;;;;;;12.70;6.85;;;;;;;-1.09;69.37;100833.91;5593777;31;34489;-62
2022/03/06 02:42:55;;;;;;;14.30;7.32;;;;;;;-1.07;69.40;100828.62;5594483;31;33460;-62
2022/03/06 02:45:58;;;;;;;14.10;7.32;;;;;;;-1.17;69.67;100833.47;5594426;31;33965;-62
2022/03/06 02:49:04;;;;;;;13.15;7.43;;;;;;;-1.28;70.45;100842.78;5594406;31;33971;-62
2022/03/06 02:52:09;;;;;;;16.02;7.43;;;;;;;-1.21;70.46;100833.72;5593938;31;34282;-62
2022/03/06 02:55:14;;;;;;;17.17;8.07;;;;;;;-1.17;70.63;100838.69;5594683;31;34457;-62
2022/03/06 02:58:17;;;;;;;13.68;8.02;;;;;;;-1.08;70.33;100843.41;5594253;31;33860;-62
2022/03/06 03:01:20;;;;;;;16.00;7.80;;;;;;;-1.14;70.69;100842.88;5593773;31;34120;-61
2022/03/06 03:04:23;;;;;;;14.93;7.40;;;;;;;-1.27;71.34;100836.66;5589923;31;34475;-61
2022/03/06 03:07:26;;;;;;;13.45;7.80;;;;;;;-1.22;71.37;100832.88;5590702;31;34561;-62
2022/03/06 03:10:29;;;;;;;17.02;7.72;;;;;;;-1.33;71.69;100835.22;5589716;31;34598;-62
2022/03/06 03:13:32;;;;;;;13.05;8.02;;;;;;;-1.38;71.77;100832.84;5589717;31;35207;-62
2022/03/06 03:16:34;;;;;;;15.80;7.82;;;;;;;-1.33;71.81;100836.06;5589998;31;34128;-62
2022/03/06 03:19:37;;;;;;;23.58;7.80;;;;;;;-1.31;71.77;100831.59;5590494;31;34726;-62
2022/03/06 03:22:40;;;;;;;12.82;7.78;;;;;;;-1.15;71.38;100834.22;5590428;31;34628;-62
2022/03/06 03:25:43;;;;;;;15.60;8.13;;;;;;;-1.19;71.50;100831.88;5590416;31;34050;-61
2022/03/06 03:28:45;;;;;;;16.10;7.72;;;;;;;-1.26;71.72;100835.72;5590734;31;34545;-62
2022/03/06 03:31:48;;;;;;;12.15;7.30;;;;;;;-1.26;72.18;100841.78;5590401;31;34124;-61
2022/03/06 03:34:51;;;;;;;14.63;7.60;;;;;;;-1.39;72.68;100840.72;5590284;31;34019;-61
2022/03/06 03:37:54;;;;;;;17.40;8.02;;;;;;;-1.33;72.93;100845.62;5590325;31;34597;-61
2022/03/06 03:40:57;;;;;;;14.55;7.20;;;;;;;-1.52;73.33;100858.75;5590670;31;33904;-61
2022/03/06 03:44:01;;;;;;;12.23;7.72;;;;;;;-1.69;74.20;100848.34;5590166;31;34038;-61
2022/03/06 03:47:04;;;;;;;14.15;7.87;;;;;;;-1.69;75.02;100847.53;5590229;31;34558;-61
2022/03/06 03:50:08;;;;;;;13.77;7.47;;;;;;;-1.71;75.08;100852.81;5590571;31;34101;-62
2022/03/06 03:53:10;;;;;;;17.50;8.82;;;;;;;-1.57;75.96;100841.69;5590198;31;33903;-62
2022/03/06 03:56:13;;;;;;;13.90;7.85;;;;;;;-1.54;75.36;100855.38;5589774;31;33966;-62
2022/03/06 03:59:15;;;;;;;12.35;7.28;;;;;;;-1.48;75.25;100854.22;5590463;31;33925;-62
2022/03/06 04:02:18;;;;;;;13.45;7.90;;;;;;;-1.54;75.25;100846.72;5590009;31;34251;-62
2022/03/06 04:05:21;;;;;;;16.65;7.68;;;;;;;-1.39;74.52;100854.59;5589984;31;33989;-61
2022/03/06 04:08:24;;;;;;;15.10;8.07;;;;;;;-1.35;74.16;100863.06;5590115;31;34684;-62
2022/03/06 04:11:27;;;;;;;12.90;8.00;;;;;;;-1.32;73.60;100868.97;5590071;31;34645;-61
2022/03/06 04:14:30;;;;;;;12.73;7.43;;;;;;;-1.43;74.00;100875.62;5589540;31;34112;-61
2022/03/06 04:17:32;;;;;;;15.95;8.05;;;;;;;-1.48;75.04;100881.09;5590314;31;34560;-62
2022/03/06 04:20:35;;;;;;;14.45;8.23;;;;;;;-1.31;74.32;100870.63;5589948;31;34013;-62
2022/03/06 04:23:38;;;;;;;15.05;8.55;;;;;;;-1.28;74.90;100871.41;5589923;31;33420;-62
2022/03/06 04:26:40;;;;;;;14.07;8.25;;;;;;;-1.34;74.73;100867.34;5589707;31;33942;-62
2022/03/06 04:29:43;;;;;;;14.82;7.93;;;;;;;-1.23;74.30;100869.41;5589864;31;33880;-62
2022/03/06 04:32:46;;;;;;;14.05;8.25;;;;;;;-1.41;75.02;100869.44;5589478;31;34224;-62
2022/03/06 04:35:49;;;;;;;13.50;7.75;;;;;;;-1.26;74.31;100867.81;5589741;31;34626;-62
2022/03/06 04:38:51;;;;;;;13.85;8.68;;;;;;;-1.24;73.90;100873.75;5589001;31;35299;-62
2022/03/06 04:41:54;;;;;;;14.80;7.90;;;;;;;-1.27;74.10;100870.47;5589729;31;34080;-61
2022/03/06 04:44:56;;;;;;;12.85;8.25;;;;;;;-1.38;74.42;100866.69;5589203;31;34569;-62
2022/03/06 04:47:59;;;;;;;13.60;7.82;;;;;;;-1.32;73.61;100868.13;5589577;31;33881;-62
2022/03/06 04:51:02;;;;;;;14.90;8.00;;;;;;;-1.26;73.14;100879.97;5589480;31;34720;-61
2022/03/06 04:54:07;;;;;;;14.60;8.05;;;;;;;-1.36;73.56;100875.25;5589580;31;34720;-62
2022/03/06 04:57:09;;;;;;;16.25;8.75;;;;;;;-1.46;74.00;100879.25;5589427;31;34174;-61
2022/03/06 05:00:14;;;;;;;13.82;8.20;;;;;;;-1.33;73.51;100880.28;5589457;31;33864;-61
2022/03/06 05:03:16;;;;;;;13.65;8.05;;;;;;;-1.48;73.91;100878.47;5589333;31;35054;-61
2022/03/06 05:06:19;;;;;;;14.98;7.82;;;;;;;-1.43;73.57;100880.84;5589736;31;35073;-62
2022/03/06 05:09:22;;;;;;;12.98;8.10;;;;;;;-1.40;74.12;100880.69;5589474;31;34687;-62
2022/03/06 05:12:25;;;;;;;13.13;7.43;;;;;;;-1.49;74.34;100887.19;5589448;31;33971;-63
2022/03/06 05:15:27;;;;;;;11.60;7.37;;;;;;;-1.61;75.42;100881.81;5589805;31;33889;-62
2022/03/06 05:18:31;;;;;;;14.10;8.30;;;;;;;-1.68;75.63;100890.81;5589668;31;34550;-62
2022/03/06 05:21:33;;;;;;;11.65;6.93;;;;;;;-1.62;75.28;100887.91;5588738;31;32746;-62
2022/03/06 05:24:36;;;;;;;13.32;7.10;;;;;;;-1.50;74.32;100888.13;5589077;31;33962;-62
2022/03/06 05:27:39;;;;;;;11.15;6.68;;;;;;;-1.60;74.02;100884.34;5588657;31;34004;-62
2022/03/06 05:30:42;;;;;;;11.05;6.87;;;;;;;-1.64;73.19;100887.13;5588994;31;33971;-62
2022/03/06 05:33:45;;;;;;;11.57;6.93;;;;;;;-1.57;72.35;100883.31;5589015;31;34909;-62
2022/03/06 05:36:48;;;;;;;15.90;7.00;;;;;;;-1.54;72.03;100886.59;5589103;31;34615;-62
2022/03/06 05:39:50;;;;;;;11.45;6.53;;;;;;;-1.52;71.72;100882.16;5589068;31;34063;-62
2022/03/06 05:42:53;;;;;;;12.63;6.90;;;;;;;-1.49;71.38;100892.41;5588425;31;34632;-62
2022/03/06 05:45:56;;;;;;;11.27;7.05;;;;;;;-1.48;71.58;100898.47;5588998;31;34565;-62
2022/03/06 05:48:58;;;;;;;12.95;6.65;;;;;;;-1.53;71.83;100895.25;5588930;31;33885;-62
2022/03/06 05:52:02;;;;;;;13.73;7.00;;;;;;;-1.48;71.71;100895.84;5588680;31;34689;-63
2022/03/06 05:55:06;;;;;;;13.85;7.15;;;;;;;-1.38;71.24;100899.66;5588786;31;34038;-63
2022/03/06 05:58:09;;;;;;;13.00;7.03;;;;;;;-1.35;71.14;100895.13;5588843;31;34042;-63
2022/03/06 06:01:13;;;;;;;12.88;6.75;;;;;;;-1.28;70.85;100897.44;5588603;31;34626;-63
2022/03/06 06:04:16;;;;;;;13.65;7.45;;;;;;;-1.09;69.77;100895.53;5588556;31;34839;-63
2022/03/06 06:07:19;;;;;;;12.20;7.05;;;;;;;-1.15;70.15;100895.84;5588558;31;34272;-63
2022/03/06 06:10:21;;;;;;;10.90;7.07;;;;;;;-1.05;69.95;100900.50;5588376;31;34284;-63
2022/03/06 06:13:24;;;;;;;14.87;8.18;;;;;;;-0.85;69.24;100898.59;5588475;31;34011;-62
2022/03/06 06:16:27;;;;;;;13.52;8.15;;;;;;;-0.63;68.23;100896.53;5588690;31;34037;-62
2022/03/06 06:19:29;;;;;;;16.15;7.93;;;;;;;-0.49;68.21;100891.37;5588382;31;34580;-62
2022/03/06 06:22:33;;;;;;;11.77;6.87;;;;;;;-0.43;67.56;100896.22;5588237;31;34585;-62
2022/03/06 06:25:35;;;;;;;11.85;6.60;;;;;;;-0.19;66.03;100889.62;5587207;31;34212;-62
2022/03/06 06:28:38;;;;;;;13.02;6.35;;;;;;;-0.25;65.70;100883.94;5588163;31;33980;-63
2022/03/06 06:31:41;;;;;;;11.80;7.20;;;;;;;-0.15;64.57;100888.56;5588033;31;33948;-62
2022/03/06 06:34:47;;;;;;;12.80;6.28;;;;;;;-0.07;64.23;100883.75;5587833;31;34953;-62
2022/03/06 06:37:50;;;;;;;11.70;6.72;;;;;;;0.09;63.69;100882.88;5589738;31;34792;-63
2022/03/06 06:40:53;;;;;;;11.43;6.62;;;;;;;-0.09;63.71;100875.16;5591007;31;35208;-62
2022/03/06 06:43:55;;;;;;;12.98;7.50;;;;;;;0.18;63.25;100874.50;5591093;31;33969;-62
2022/03/06 06:46:59;;;;;;;13.10;7.03;;;;;;;0.32;62.50;100883.19;5590787;31;34017;-62
2022/03/06 06:50:04;;;;;;;11.00;6.72;;;;;;;0.44;61.68;100882.44;5590986;31;34124;-62
2022/03/06 06:53:07;;;;;;;12.90;7.28;;;;;;;0.75;60.61;100878.84;5590767;31;34623;-62
2022/03/06 06:56:12;;;;;;;12.70;7.30;;;;;;;0.75;59.99;100884.06;5590698;31;35196;-62
2022/03/06 06:59:15;;;;;;;12.52;6.93;;;;;;;1.34;59.11;100882.16;5590582;31;33936;-62
2022/03/06 07:02:18;;;;;;;14.00;6.87;;;;;;;1.08;58.45;100890.78;5591004;31;33981;-61
2022/03/06 07:05:21;;;;;;;11.23;6.62;;;;;;;0.57;60.35;100885.19;5589765;31;34158;-62
2022/03/06 07:08:24;;;;;;;11.52;6.50;;;;;;;0.52;60.33;100889.84;5590890;31;34135;-62
2022/03/06 07:11:27;;;;;;;14.40;6.47;;;;;;;0.42;61.21;100893.94;5590433;31;34118;-63
2022/03/06 07:14:30;;;;;;;11.93;6.57;;;;;;;0.31;61.62;100889.34;5590333;31;34002;-63
2022/03/06 07:17:33;;;;;;;12.07;6.32;;;;;;;0.41;61.95;100892.25;5590426;31;34198;-63
2022/03/06 07:20:36;;;;;;;14.52;6.07;;;;;;;0.35;61.65;100890.00;5590591;31;34043;-62
2022/03/06 07:23:41;;;;;;;11.63;6.30;;;;;;;0.55;61.15;100900.09;5590310;31;34028;-62
2022/03/06 07:26:43;;;;;;;11.68;6.90;;;;;;;0.47;61.26;100893.66;5590154;31;34562;-63
2022/03/06 07:29:46;;;;;;;13.25;7.70;;;;;;;0.48;61.47;100890.13;5590321;31;34434;-63
2022/03/06 07:32:51;;;;;;;12.75;7.25;;;;;;;0.61;61.06;100899.72;5590533;31;33842;-62
2022/03/06 07:35:54;;;;;;;12.95;6.78;;;;;;;0.79;60.67;100895.16;5590034;31;35464;-63
2022/03/06 07:38:57;;;;;;;11.63;6.70;;;;;;;0.92;60.18;100897.87;5589744;31;33916;-62
2022/03/06 07:41:59;;;;;;;13.55;6.65;;;;;;;1.63;58.20;100890.75;5590115;31;34314;-63
2022/03/06 07:45:04;;;;;;;10.70;6.25;;;;;;;2.42;55.04;100896.00;5590059;31;33995;-62
2022/03/06 07:48:08;;;;;;;10.90;5.70;;;;;;;2.78;53.70;100888.22;5589568;31;34025;-63
2022/03/06 07:51:10;;;;;;;11.00;6.37;;;;;;;5.29;47.50;100893.12;5590002;31;33906;-62
2022/03/06 07:54:14;;;;;;;10.13;5.93;;;;;;;5.76;45.92;100887.53;5590062;31;34119;-63
2022/03/06 07:57:17;;;;;;;9.05;5.55;;;;;;;6.46;43.79;100887.00;5590216;31;34735;-63
2022/03/06 08:00:20;;;;;;;9.77;5.70;;;;;;;8.14;40.00;100884.47;5590331;31;34257;-63
2022/03/06 08:03:22;;;;;;;9.25;5.60;;;;;;;6.93;41.99;100886.44;5590058;31;35251;-63
2022/03/06 08:06:25;;;;;;;10.40;6.03;;;;;;;5.97;44.14;100875.28;5590028;31;34139;-63
2022/03/06 08:09:28;;;;;;;8.75;5.70;;;;;;;7.25;40.77;100880.19;5589602;31;34082;-63
2022/03/06 08:12:31;;;;;;;10.02;5.93;;;;;;;8.46;38.72;100881.56;5589888;31;33976;-64
2022/03/06 08:15:33;;;;;;;11.20;6.40;;;;;;;8.78;38.10;100886.47;5589405;31;34579;-63
2022/03/06 08:18:36;;;;;;;9.05;6.03;;;;;;;7.55;40.60;100881.94;5589864;31;34544;-64
2022/03/06 08:21:39;;;;;;;9.40;5.80;;;;;;;7.35;40.73;100868.69;5589687;31;33931;-63
2022/03/06 08:24:42;;;;;;;10.10;5.85;;;;;;;7.98;39.48;100871.00;5589607;31;34069;-63
2022/03/06 08:27:45;;;;;;;10.50;4.97;;;;;;;7.21;41.39;100866.41;5589838;31;34578;-64
2022/03/06 08:30:47;;;;;;;9.70;5.10;;;;;;;8.13;38.63;100862.47;5589566;31;34590;-64
2022/03/06 08:33:52;;;;;;;7.72;5.05;;;;;;;9.02;36.74;100865.66;5589820;31;33945;-64
2022/03/06 08:36:54;;;;;;;6.65;4.68;;;;;;;10.51;33.96;100853.56;5589675;31;34096;-62
2022/03/06 08:39:57;;;;;;;7.72;4.95;;;;;;;9.69;35.91;100840.56;5589589;31;33995;-64
2022/03/06 08:42:59;;;;;;;9.95;5.28;;;;;;;10.48;33.24;100844.09;5589622;31;33889;-64
2022/03/06 08:46:03;;;;;;;8.45;4.72;;;;;;;9.63;35.08;100841.19;5589483;31;33952;-64
2022/03/06 08:49:06;;;;;;;8.65;5.05;;;;;;;10.29;33.14;100845.12;5589919;31;34279;-64
2022/03/06 08:52:10;;;;;;;7.28;4.80;;;;;;;9.55;34.31;100841.94;5589753;31;34066;-64
2022/03/06 08:55:13;;;;;;;9.68;5.45;;;;;;;7.92;36.18;100847.78;5589840;31;34446;-63
2022/03/06 08:58:16;;;;;;;9.35;5.22;;;;;;;5.25;43.14;100846.03;5589534;31;33997;-63
2022/03/06 09:01:18;;;;;;;11.07;5.18;;;;;;;4.38;45.28;100854.66;5588225;31;34551;-63
2022/03/06 09:04:23;;;;;;;10.45;5.53;;;;;;;4.67;45.32;100852.41;5589284;31;34687;-63
2022/03/06 09:07:27;;;;;;;12.18;5.65;;;;;;;4.60;46.18;100845.94;5589231;31;34950;-63
2022/03/06 09:10:38;;;;;;;11.70;5.50;;;;;;;4.07;47.35;100847.37;5589363;31;33895;-63
2022/03/06 09:13:40;;;;;;;8.30;5.00;;;;;;;4.09;47.79;100839.41;5589336;31;33981;-63
2022/03/06 09:16:43;;;;;;;10.50;4.80;;;;;;;4.02;47.63;100849.53;5589435;31;33890;-63
2022/03/06 09:19:46;;;;;;;8.32;4.65;;;;;;;3.86;48.40;100833.25;5589154;31;35251;-63
2022/03/06 09:22:52;;;;;;;8.85;4.90;;;;;;;3.86;48.40;100849.84;5589166;31;34301;-63
2022/03/06 09:25:54;;;;;;;10.43;4.82;;;;;;;3.95;47.97;100840.44;5589214;31;33872;-63
2022/03/06 09:28:57;;;;;;;13.00;4.65;;;;;;;3.95;47.70;100832.56;5588961;31;34528;-63
2022/03/06 09:32:00;;;;;;;10.20;5.30;;;;;;;3.94;47.68;100839.59;5588705;31;34068;-62
2022/03/06 09:35:03;;;;;;;9.82;5.07;;;;;;;3.72;48.31;100830.81;5588834;31;34438;-62
2022/03/06 09:38:06;;;;;;;9.00;5.00;;;;;;;3.82;47.93;100839.69;5588612;31;34751;-62
2022/03/06 09:41:15;;;;;;;9.13;5.32;;;;;;;3.79;48.62;100830.25;5587962;31;34592;-62
2022/03/06 09:44:18;;;;;;;9.52;4.87;;;;;;;4.03;47.86;100827.56;5588625;31;34726;-63
2022/03/06 09:47:24;;;;;;;11.40;5.70;;;;;;;4.28;47.12;100822.16;5588613;31;33942;-63
2022/03/06 09:50:26;;;;;;;11.80;5.95;;;;;;;4.08;47.26;100822.81;5588733;31;34806;-64
2022/03/06 09:53:30;;;;;;;11.88;5.55;;;;;;;3.94;47.33;100813.34;5588427;31;34684;-63
2022/03/06 09:56:33;;;;;;;8.82;5.60;;;;;;;4.07;47.87;100815.88;5588812;31;34196;-63
2022/03/06 09:59:36;;;;;;;10.88;5.62;;;;;;;3.84;47.37;100812.38;5588491;31;34415;-63
2022/03/06 10:02:58;;;;;;;8.45;4.90;;;;;;;4.13;46.61;100814.59;5588360;31;33980;-63
2022/03/06 10:06:04;;;;;;;12.20;5.93;;;;;;;4.10;46.51;100823.56;5588159;31;34045;-62
2022/03/06 10:09:07;;;;;;;10.93;5.80;;;;;;;4.21;46.54;100810.41;5588591;31;34219;-62
2022/03/06 10:12:32;;;;;;;8.43;5.18;;;;;;;4.33;46.68;100803.41;5589150;31;33895;-63
2022/03/06 10:16:14;;;;;;;10.30;5.60;;;;;;;4.51;45.35;100809.03;5590932;31;34092;-63
2022/03/06 10:19:17;;;;;;;10.25;5.78;;;;;;;4.56;44.80;100806.87;5590493;31;34014;-63
2022/03/06 10:22:21;;;;;;;9.85;5.40;;;;;;;4.36;45.74;100805.78;5590768;31;35149;-63
2022/03/06 10:25:26;;;;;;;12.30;5.75;;;;;;;4.64;44.89;100818.50;5590830;31;34134;-63
2022/03/06 10:28:29;;;;;;;11.12;5.85;;;;;;;4.52;44.84;100802.81;5590950;31;34167;-62
2022/03/06 10:31:34;;;;;;;11.85;5.40;;;;;;;4.73;44.95;100806.44;5590351;31;33943;-62
2022/03/06 10:34:40;;;;;;;12.73;6.05;;;;;;;4.79;44.77;100805.94;5590992;31;34217;-63
2022/03/06 10:37:43;;;;;;;9.60;5.75;;;;;;;4.84;44.53;100802.97;5590596;31;33902;-62
2022/03/06 10:40:46;;;;;;;10.98;6.85;;;;;;;4.74;44.73;100785.25;5590462;31;34103;-63
2022/03/06 10:43:52;;;;;;;11.85;6.45;;;;;;;4.77;44.69;100786.81;5590507;31;34627;-63
2022/03/06 10:47:04;;;;;;;10.85;5.22;;;;;;;4.96;44.46;100776.53;5590529;31;33635;-62
2022/03/06 10:50:07;;;;;;;9.13;5.55;;;;;;;4.69;44.32;100779.56;5589252;31;32418;-62
2022/03/06 10:53:24;;;;;;;8.73;5.72;;;;;;;4.55;45.02;100777.16;5590416;31;33926;-62
2022/03/06 10:56:27;;;;;;;9.82;5.28;;;;;;;4.98;44.82;100766.72;5590375;31;34010;-63
2022/03/06 10:59:30;;;;;;;8.20;5.37;;;;;;;5.41;43.21;100772.00;5590662;31;34336;-63
2022/03/06 11:02:35;;;;;;;9.60;5.43;;;;;;;5.05;43.71;100762.63;5590360;31;34192;-63
2022/03/06 11:05:45;;;;;;;10.25;5.60;;;;;;;5.01;43.83;100749.88;5590491;31;33936;-63
2022/03/06 11:08:49;;;;;;;9.38;5.80;;;;;;;5.35;43.76;100746.16;5590183;31;34786;-63
2022/03/06 11:11:55;;;;;;;11.85;5.93;;;;;;;5.25;43.18;100745.25;5589927;31;34597;-63
2022/03/06 11:14:59;;;;;;;12.43;5.60;;;;;;;5.08;43.60;100743.97;5590181;31;34431;-63
2022/03/06 11:18:02;;;;;;;9.73;5.62;;;;;;;5.74;43.17;100726.25;5590186;31;34817;-63
2022/03/06 11:21:06;;;;;;;9.48;5.45;;;;;;;7.00;40.42;100725.84;5590348;31;34259;-63
2022/03/06 11:24:22;;;;;;;9.10;5.50;;;;;;;10.02;34.42;100713.50;5589550;31;34725;-63
2022/03/06 11:27:46;;;;;;;11.40;5.62;;;;;;;12.19;30.44;100711.53;5590436;31;34765;-63
2022/03/06 11:30:49;;;;;;;9.38;5.43;;;;;;;12.69;29.21;100710.31;5590372;31;34078;-63
2022/03/06 11:33:55;;;;;;;10.30;5.80;;;;;;;14.80;26.14;100706.69;5590533;31;34605;-63
2022/03/06 11:37:09;;;;;;;8.88;5.28;;;;;;;16.52;24.47;100704.50;5590164;31;35302;-64
2022/03/06 11:40:34;;;;;;;10.95;6.00;;;;;;;14.28;25.79;100702.28;5590569;31;33865;-63
2022/03/06 11:43:57;;;;;;;10.43;6.22;;;;;;;14.02;26.35;100695.75;5589811;31;34321;-64
2022/03/06 11:47:10;;;;;;;9.30;6.05;;;;;;;14.07;26.38;100690.69;5590051;31;34081;-64
2022/03/06 11:50:21;;;;;;;9.73;5.68;;;;;;;14.78;25.44;100687.34;5590067;31;33953;-64
2022/03/06 11:54:08;;;;;;;10.32;6.05;;;;;;;16.53;23.33;100687.41;5589883;31;34003;-64
2022/03/06 11:57:11;;;;;;;10.13;5.60;;;;;;;15.18;24.66;100686.78;5583126;31;34064;-64
2022/03/06 12:00:24;;;;;;;9.25;6.20;;;;;;;15.16;24.79;100682.62;5590088;31;34001;-65
2022/03/06 12:03:27;;;;;;;10.45;6.05;;;;;;;16.61;22.98;100678.41;5589952;31;33904;-64
2022/03/06 12:06:30;;;;;;;9.45;5.78;;;;;;;15.18;24.16;100680.63;5590183;31;33921;-64
2022/03/06 12:09:40;;;;;;;8.70;5.68;;;;;;;17.21;21.74;100675.72;5590102;31;34614;-64
2022/03/06 12:12:55;;;;;;;11.27;5.72;;;;;;;16.87;22.42;100670.47;5589864;31;33860;-64
2022/03/06 12:16:07;;;;;;;10.55;5.90;;;;;;;17.42;21.90;100655.94;5589763;31;34538;-65
2022/03/06 12:19:11;;;;;;;8.98;5.85;;;;;;;17.55;21.46;100655.94;5590034;31;34038;-64
2022/03/06 12:22:33;;;;;;;9.25;6.03;;;;;;;17.30;21.90;100646.84;5589684;31;34071;-65
2022/03/06 12:25:37;;;;;;;9.38;5.85;;;;;;;17.94;21.37;100648.91;5589832;31;34646;-65
2022/03/06 12:28:42;;;;;;;10.93;6.53;;;;;;;17.93;20.64;100644.56;5589791;31;34060;-65
2022/03/06 12:31:45;;;;;;;8.82;6.03;;;;;;;16.63;21.86;100644.22;5589628;31;34101;-64
2022/03/06 12:34:58;;;;;;;9.65;6.43;;;;;;;15.60;23.21;100642.34;5588634;31;34031;-64
2022/03/06 12:38:00;;;;;;;9.95;6.75;;;;;;;15.97;22.48;100638.50;5589691;31;33891;-65
2022/03/06 12:41:04;;;;;;;8.80;6.35;;;;;;;16.99;21.91;100638.56;5588786;31;34533;-65
2022/03/06 12:44:08;;;;;;;9.48;6.18;;;;;;;18.05;20.46;100629.50;5589668;31;34009;-65
2022/03/06 12:47:11;;;;;;;8.93;6.35;;;;;;;18.10;20.29;100630.53;5589832;31;34306;-65
2022/03/06 12:50:19;;;;;;;8.50;6.03;;;;;;;15.58;22.77;100631.88;5589552;31;33871;-65
2022/03/06 12:53:22;;;;;;;8.95;6.12;;;;;;;18.28;20.52;100627.16;5589593;31;34727;-65
2022/03/06 12:56:37;;;;;;;9.45;6.32;;;;;;;16.77;21.08;100617.25;5589225;31;34086;-65
2022/03/06 12:59:46;;;;;;;7.90;6.07;;;;;;;16.82;21.39;100624.69;5589844;31;33884;-64
2022/03/06 13:02:50;;;;;;;10.50;6.80;;;;;;;16.81;21.42;100615.00;5589326;31;34680;-64
2022/03/06 13:05:53;;;;;;;10.90;7.05;;;;;;;15.61;22.51;100607.41;5589188;31;33921;-65
2022/03/06 13:09:01;;;;;;;9.95;6.40;;;;;;;15.12;22.97;100609.22;5589483;31;34059;-65
2022/03/06 13:12:05;;;;;;;10.82;6.87;;;;;;;15.05;23.20;100603.00;5589235;31;34145;-65
2022/03/06 13:15:14;;;;;;;12.07;6.87;;;;;;;14.68;24.08;100615.53;5589158;31;33918;-65
2022/03/06 13:18:20;;;;;;;11.20;7.33;;;;;;;14.48;23.76;100611.81;5589254;31;35512;-65
2022/03/06 13:21:24;;;;;;;10.65;6.95;;;;;;;13.93;24.82;100613.16;5589248;31;34189;-64
2022/03/06 13:24:27;;;;;;;12.48;7.32;;;;;;;14.19;23.71;100607.31;5588814;31;34586;-64
2022/03/06 13:27:32;;;;;;;10.63;7.35;;;;;;;13.64;24.76;100609.63;5588644;31;33945;-64
2022/03/06 13:30:36;;;;;;;9.63;6.47;;;;;;;15.28;22.71;100610.81;5588104;31;33981;-65
2022/03/06 13:33:39;;;;;;;11.95;7.45;;;;;;;15.56;22.22;100598.31;5588770;31;33310;-65
2022/03/06 13:36:44;;;;;;;12.00;7.45;;;;;;;15.22;22.41;100601.69;5589334;31;33176;-64
2022/03/06 13:39:53;;;;;;;11.85;7.93;;;;;;;16.50;20.91;100596.75;5588945;31;33910;-65
2022/03/06 13:42:57;;;;;;;11.10;7.07;;;;;;;16.95;20.71;100588.03;5588057;31;34013;-64
2022/03/06 13:46:00;;;;;;;11.27;7.22;;;;;;;15.38;22.20;100596.09;5588536;31;33945;-63
2022/03/06 13:49:15;;;;;;;10.45;7.25;;;;;;;13.78;23.85;100588.31;5588800;31;34804;-64
2022/03/06 13:52:17;;;;;;;11.12;7.50;;;;;;;13.95;23.65;100594.28;5589099;31;33977;-65
2022/03/06 13:55:22;;;;;;;11.68;7.20;;;;;;;14.44;23.50;100589.19;5588796;31;34234;-64
2022/03/06 13:58:36;;;;;;;11.52;7.10;;;;;;;14.47;23.12;100590.66;5589005;31;35169;-63
2022/03/06 14:01:39;;;;;;;11.90;6.78;;;;;;;15.38;21.71;100585.41;5588095;31;34627;-64
2022/03/06 14:04:47;;;;;;;10.70;6.45;;;;;;;14.51;22.67;100589.28;5588532;31;33921;-64
2022/03/06 14:07:50;;;;;;;10.52;6.60;;;;;;;15.63;22.07;100585.81;5588875;31;34463;-64
2022/03/06 14:10:54;;;;;;;12.30;6.32;;;;;;;15.22;22.63;100591.84;5588791;31;34053;-64
2022/03/06 14:13:59;;;;;;;10.98;6.62;;;;;;;15.15;22.96;100582.13;5587510;31;34038;-64